Time;durP1;ratioP1;P1;durP2;ratioP2;P2;SDS_P1;SDS_P2;PMS_P1;PMS_P2;Temp;Humidity;BMP_temperature;BMP_pressure;BME280_temperature;BME280_humidity;BME280_pressure;Samples;Min_cycle;Max_cycle;Signal;HPM_P1;HPM_P2
2023/08/22 12:34:17;;;;;;;18.53;16.83;;;26.30;99.90;;;;;;5131045;27;20562;-60
2023/08/22 12:36:43;;;;;;;9.97;9.07;;;26.40;99.90;;;;;;5130394;28;20447;-74
2023/08/22 12:39:10;;;;;;;8.07;7.37;;;26.50;99.90;;;;;;5130878;28;20171;-73
2023/08/22 12:41:39;;;;;;;7.83;7.30;;;26.60;99.90;;;;;;5129978;28;20439;-72
2023/08/22 12:44:05;;;;;;;8.57;7.97;;;26.70;99.90;;;;;;5130104;28;20408;-73
2023/08/22 12:46:31;;;;;;;8.33;7.50;;;26.80;98.90;;;;;;5130709;28;20455;-73
2023/08/22 12:48:57;;;;;;;7.80;7.07;;;26.80;97.80;;;;;;5130153;28;20436;-73
2023/08/22 12:51:23;;;;;;;8.40;7.60;;;26.80;97.30;;;;;;5144736;27;20185;-73
2023/08/22 12:53:51;;;;;;;9.43;8.70;;;26.80;97.50;;;;;;5150676;27;20202;-73
2023/08/22 12:56:17;;;;;;;9.57;8.43;;;26.90;97.80;;;;;;5151053;27;20630;-73
2023/08/22 12:58:44;;;;;;;8.73;7.30;;;27.10;98.00;;;;;;5150683;27;20407;-72
2023/08/22 13:01:10;;;;;;;10.80;8.87;;;27.20;97.10;;;;;;5151310;27;20483;-73
2023/08/22 13:03:36;;;;;;;8.33;7.83;;;27.30;97.10;;;;;;5150763;27;20445;-72
2023/08/22 13:06:02;;;;;;;9.20;8.40;;;27.40;96.10;;;;;;5151191;27;20396;-73
2023/08/22 13:08:29;;;;;;;8.80;8.20;;;27.60;96.50;;;;;;5151155;27;20257;-73
2023/08/22 13:10:54;;;;;;;11.30;9.30;;;27.70;95.60;;;;;;5146978;27;20797;-73
2023/08/22 13:13:21;;;;;;;10.23;8.47;;;27.80;96.10;;;;;;5150945;27;20451;-73
2023/08/22 13:15:48;;;;;;;9.50;8.70;;;27.80;94.30;;;;;;5150267;27;20178;-73
2023/08/22 13:18:14;;;;;;;10.03;8.93;;;27.80;95.50;;;;;;5150835;27;20428;-73
2023/08/22 13:20:40;;;;;;;9.83;8.93;;;27.80;94.60;;;;;;5145067;27;20507;-72
2023/08/22 13:23:06;;;;;;;9.47;8.77;;;27.70;95.50;;;;;;5150831;27;21093;-73
2023/08/22 13:25:32;;;;;;;10.40;9.30;;;27.70;94.90;;;;;;5150754;27;20415;-73
2023/08/22 13:27:58;;;;;;;10.10;9.10;;;27.70;95.30;;;;;;5150085;27;20287;-73
2023/08/22 13:30:23;;;;;;;9.73;8.83;;;27.60;95.30;;;;;;5141117;27;20255;-74
2023/08/22 13:32:50;;;;;;;9.10;8.30;;;27.60;95.60;;;;;;5128243;28;20230;-73
2023/08/22 13:35:16;;;;;;;9.70;8.90;;;27.50;97.30;;;;;;5127567;27;20199;-72
2023/08/22 13:37:42;;;;;;;10.87;9.80;;;27.40;97.40;;;;;;5129278;28;20446;-72
2023/08/22 13:40:08;;;;;;;8.97;8.27;;;27.40;96.20;;;;;;5129978;28;20396;-73
2023/08/22 13:42:35;;;;;;;8.10;7.50;;;27.30;95.00;;;;;;5129526;28;20392;-73
2023/08/22 13:45:03;;;;;;;8.77;8.00;;;27.30;96.00;;;;;;5118435;28;20979;-73
2023/08/22 13:47:29;;;;;;;11.33;9.50;;;27.30;96.80;;;;;;5103122;28;20446;-73
2023/08/22 13:49:55;;;;;;;8.33;7.83;;;27.30;95.30;;;;;;5117365;27;20934;-72
2023/08/22 13:52:23;;;;;;;8.80;7.97;;;27.30;95.10;;;;;;5122880;27;20207;-73
2023/08/22 13:54:49;;;;;;;7.53;6.97;;;27.20;93.50;;;;;;5115201;28;20175;-73
2023/08/22 13:57:16;;;;;;;7.87;7.37;;;27.20;95.30;;;;;;5116026;28;20398;-73
2023/08/22 13:59:44;;;;;;;6.50;6.07;;;27.10;96.00;;;;;;5114336;28;20511;-72
2023/08/22 14:02:10;;;;;;;7.33;6.73;;;27.00;94.60;;;;;;5112550;28;20470;-73
2023/08/22 14:04:36;;;;;;;87.80;77.30;;;27.00;94.10;;;;;;5116071;27;20452;-71
2023/08/22 14:07:02;;;;;;;66.73;59.50;;;27.00;93.50;;;;;;5098989;28;20527;-73
2023/08/22 14:09:28;;;;;;;24.53;22.27;;;27.00;94.00;;;;;;5106266;27;20897;-67
2023/08/22 14:11:54;;;;;;;7.67;6.73;;;27.00;93.80;;;;;;5099917;27;20529;-66
2023/08/22 14:14:21;;;;;;;181.10;161.80;;;27.00;93.80;;;;;;5103410;27;20427;-66
2023/08/22 14:16:47;;;;;;;80.33;67.73;;;27.00;93.20;;;;;;5112835;28;20428;-68
2023/08/22 14:19:13;;;;;;;13.47;12.27;;;27.00;92.80;;;;;;5114754;28;20459;-66
2023/08/22 14:21:39;;;;;;;7.63;6.03;;;27.10;93.20;;;;;;5114767;28;20421;-66
2023/08/22 14:24:05;;;;;;;6.30;5.80;;;27.10;93.50;;;;;;5114340;28;20175;-66
2023/08/22 14:26:30;;;;;;;5.70;5.20;;;27.00;94.00;;;;;;5114425;28;20630;-66
2023/08/22 14:28:56;;;;;;;7.20;6.50;;;27.00;92.80;;;;;;5109319;27;20184;-66
2023/08/22 14:31:23;;;;;;;5.40;4.90;;;27.00;93.20;;;;;;5104976;28;20172;-66
2023/08/22 14:33:48;;;;;;;5.20;4.70;;;27.00;93.30;;;;;;5094014;28;20223;-64
2023/08/22 14:36:14;;;;;;;6.10;5.50;;;27.00;94.30;;;;;;5094755;28;20747;-66
2023/08/22 14:38:40;;;;;;;5.37;4.97;;;27.00;95.00;;;;;;5103174;27;20180;-63
2023/08/22 14:41:08;;;;;;;7.00;6.50;;;26.90;95.50;;;;;;5118778;27;20216;-63
2023/08/22 14:43:34;;;;;;;5.50;5.07;;;26.90;96.10;;;;;;5097226;27;20418;-62
2023/08/22 14:46:00;;;;;;;5.57;5.07;;;26.90;94.20;;;;;;5093826;28;20811;-62
2023/08/22 14:48:26;;;;;;;6.83;6.33;;;26.90;93.80;;;;;;5094614;28;20172;-64
2023/08/22 14:50:52;;;;;;;5.60;5.20;;;26.80;94.40;;;;;;5094849;28;20416;-65
2023/08/22 14:53:21;;;;;;;4.43;4.10;;;26.90;95.10;;;;;;5105119;28;20209;-66
2023/08/22 14:56:03;;;;;;;6.67;5.57;;;26.90;96.00;;;;;;5114078;27;20481;-64
2023/08/22 14:58:48;;;;;;;6.80;5.10;;;26.90;96.60;;;;;;5113862;28;20417;-71
2023/08/22 15:01:17;;;;;;;6.30;4.67;;;26.90;95.70;;;;;;5099821;28;20889;-70
2023/08/22 15:03:42;;;;;;;4.20;4.00;;;26.90;94.50;;;;;;5120720;27;20433;-69
2023/08/22 15:06:08;;;;;;;63.93;56.97;;;26.90;94.20;;;;;;5123520;27;20767;-70
2023/08/22 15:08:34;;;;;;;71.73;64.87;;;26.90;94.00;;;;;;5113798;28;20179;-69
2023/08/22 15:11:00;;;;;;;23.93;17.63;;;26.90;94.40;;;;;;5093283;28;20180;-70
2023/08/22 15:13:28;;;;;;;6.60;6.00;;;26.90;94.00;;;;;;5108408;28;20467;-85
2023/08/22 15:15:56;;;;;;;6.13;4.90;;;26.90;93.60;;;;;;5102579;28;20429;-70
2023/08/22 15:18:22;;;;;;;6.47;6.07;;;26.90;94.00;;;;;;5109840;28;20447;-69
2023/08/22 15:20:50;;;;;;;6.10;5.70;;;26.90;94.90;;;;;;5112609;28;20952;-70
2023/08/22 15:23:16;;;;;;;6.07;5.67;;;26.80;96.10;;;;;;5104972;28;20421;-68
2023/08/22 15:25:41;;;;;;;6.43;5.03;;;26.80;95.90;;;;;;5104680;27;20420;-70
2023/08/22 15:28:07;;;;;;;5.83;5.53;;;26.80;95.80;;;;;;5099262;27;20833;-69
2023/08/22 15:30:33;;;;;;;7.63;6.73;;;26.80;97.30;;;;;;5092899;28;20607;-70
2023/08/22 15:32:59;;;;;;;6.80;6.20;;;26.80;98.00;;;;;;5093600;27;20301;-70
2023/08/22 15:35:25;;;;;;;6.27;5.77;;;26.80;96.70;;;;;;5134552;27;20409;-70
2023/08/22 15:37:51;;;;;;;6.23;5.73;;;26.90;96.60;;;;;;5133815;27;20630;-69
2023/08/22 15:40:17;;;;;;;7.10;6.40;;;26.90;96.40;;;;;;5134349;27;20167;-70
2023/08/22 15:42:43;;;;;;;8.30;7.50;;;26.90;96.50;;;;;;5134319;27;20175;-69
2023/08/22 15:45:10;;;;;;;7.43;6.83;;;26.80;96.90;;;;;;5134011;27;20397;-70
2023/08/22 15:47:35;;;;;;;7.13;6.63;;;26.80;97.10;;;;;;5134211;27;20171;-70
2023/08/22 15:50:01;;;;;;;7.10;6.50;;;26.80;98.20;;;;;;5133513;27;20399;-69
2023/08/22 15:52:27;;;;;;;8.70;7.93;;;26.80;97.40;;;;;;5134157;27;20198;-70
2023/08/22 15:54:53;;;;;;;7.30;6.80;;;26.70;99.70;;;;;;5133460;27;20175;-70
2023/08/22 15:57:19;;;;;;;7.47;6.87;;;26.60;99.90;;;;;;5134058;27;20174;-70
2023/08/22 15:59:45;;;;;;;7.53;6.80;;;26.60;99.90;;;;;;5133837;27;20856;-61
2023/08/22 16:02:11;;;;;;;6.67;6.17;;;26.60;99.90;;;;;;5129821;27;20206;-70
2023/08/22 16:04:36;;;;;;;6.70;6.10;;;26.60;99.90;;;;;;5132516;27;20620;-70
2023/08/22 16:07:02;;;;;;;6.63;6.10;;;26.60;99.90;;;;;;5130274;27;20247;-70
2023/08/22 16:09:28;;;;;;;6.57;5.97;;;26.50;99.90;;;;;;5133978;27;20171;-70
2023/08/22 16:11:53;;;;;;;8.60;6.30;;;26.50;99.90;;;;;;5133151;27;20619;-70
2023/08/22 16:14:19;;;;;;;6.90;6.20;;;26.50;99.90;;;;;;5133811;27;20167;-70
2023/08/22 16:16:45;;;;;;;5.87;5.47;;;26.40;99.90;;;;;;5133764;27;20232;-70
2023/08/22 16:19:11;;;;;;;7.27;6.73;;;26.40;99.90;;;;;;5133678;27;20250;-70
2023/08/22 16:21:37;;;;;;;7.00;6.43;;;26.40;99.90;;;;;;5133724;27;20448;-70
2023/08/22 16:24:03;;;;;;;6.93;6.43;;;26.40;99.90;;;;;;5131849;27;20269;-70
2023/08/22 16:26:28;;;;;;;7.30;6.80;;;26.40;99.90;;;;;;5133630;27;20194;-70
2023/08/22 16:28:55;;;;;;;7.07;6.43;;;26.30;99.90;;;;;;5133016;27;20202;-69
2023/08/22 16:31:23;;;;;;;7.50;7.00;;;26.30;99.90;;;;;;5133608;28;20170;-70
2023/08/22 16:33:49;;;;;;;8.10;7.50;;;26.20;99.90;;;;;;5132371;28;20461;-69
2023/08/22 16:36:15;;;;;;;7.77;6.60;;;26.20;99.90;;;;;;5130480;28;20437;-70
2023/08/22 16:38:40;;;;;;;8.17;7.43;;;26.20;99.90;;;;;;5133588;28;20491;-70
2023/08/22 16:41:06;;;;;;;7.10;6.30;;;26.10;99.90;;;;;;5132866;28;20179;-69
2023/08/22 16:43:32;;;;;;;8.50;7.27;;;26.10;99.90;;;;;;5133510;28;20174;-70
2023/08/22 16:45:58;;;;;;;8.77;6.60;;;26.10;99.90;;;;;;5132814;28;20182;-70
2023/08/22 16:48:23;;;;;;;7.50;6.80;;;26.10;99.90;;;;;;5133546;28;20654;-70
2023/08/22 16:50:50;;;;;;;11.80;7.07;;;26.00;99.90;;;;;;5132903;28;20178;-69
2023/08/22 16:53:16;;;;;;;7.73;6.83;;;25.90;99.90;;;;;;5129916;28;20198;-76
2023/08/22 16:55:43;;;;;;;6.87;6.20;;;25.90;99.90;;;;;;5128241;28;20505;-70
2023/08/22 16:58:11;;;;;;;8.20;6.60;;;25.90;99.90;;;;;;5132766;28;20407;-69
2023/08/22 17:00:37;;;;;;;7.00;6.50;;;25.90;99.90;;;;;;5133569;28;20420;-69
2023/08/22 17:03:03;;;;;;;8.30;7.50;;;25.90;99.90;;;;;;5132697;28;20416;-69
2023/08/22 17:05:31;;;;;;;8.03;7.20;;;25.80;99.90;;;;;;5133280;28;20431;-69
2023/08/22 17:07:57;;;;;;;9.77;7.27;;;25.80;99.90;;;;;;5132665;28;20473;-69
2023/08/22 17:10:23;;;;;;;8.13;7.43;;;25.80;99.90;;;;;;5133313;28;20397;-69
2023/08/22 17:12:52;;;;;;;7.40;6.80;;;25.70;99.90;;;;;;5133360;28;20923;-69
2023/08/22 17:15:19;;;;;;;7.60;7.00;;;25.70;99.90;;;;;;5133194;28;20441;-69
2023/08/22 17:17:45;;;;;;;8.03;7.33;;;25.70;99.90;;;;;;5133132;28;20405;-69
2023/08/22 17:20:12;;;;;;;7.50;7.00;;;25.70;99.90;;;;;;5135189;27;20759;-69
2023/08/22 17:22:37;;;;;;;7.50;6.90;;;25.70;99.90;;;;;;5137089;27;20258;-69
2023/08/22 17:25:04;;;;;;;7.43;6.87;;;25.60;99.90;;;;;;5134457;27;20512;-69
2023/08/22 17:27:30;;;;;;;6.77;6.23;;;25.60;99.90;;;;;;5136710;27;20175;-69
2023/08/22 17:29:56;;;;;;;7.17;6.53;;;25.60;99.90;;;;;;5136541;27;20407;-69
2023/08/22 17:32:22;;;;;;;7.70;6.90;;;25.60;99.90;;;;;;5117818;27;20231;-69
2023/08/22 17:34:50;;;;;;;8.77;7.97;;;25.60;99.90;;;;;;5108971;28;20165;-69
2023/08/22 17:37:15;;;;;;;6.57;6.00;;;25.60;99.90;;;;;;5094734;28;20183;-69
2023/08/22 17:39:47;;;;;;;6.67;6.07;;;25.60;99.90;;;;;;5095354;28;20400;-69
2023/08/22 17:42:13;;;;;;;6.80;6.20;;;25.50;99.90;;;;;;5095220;28;20176;-69
2023/08/22 17:44:40;;;;;;;6.10;5.63;;;25.50;99.90;;;;;;5095732;28;20406;-69
2023/08/22 17:47:05;;;;;;;9.10;7.20;;;25.40;99.90;;;;;;5094780;28;20173;-69
2023/08/22 17:49:31;;;;;;;7.10;6.40;;;25.40;99.90;;;;;;5095589;28;20903;-69
2023/08/22 17:51:57;;;;;;;7.80;7.20;;;25.30;99.90;;;;;;5094694;28;20648;-69
2023/08/22 17:54:23;;;;;;;8.90;7.47;;;25.30;99.90;;;;;;5108578;27;20688;-69
2023/08/22 17:56:50;;;;;;;7.50;6.83;;;25.20;99.90;;;;;;5106644;27;20536;-69
2023/08/22 17:59:16;;;;;;;9.23;8.33;;;25.10;99.90;;;;;;5109742;28;20282;-68
2023/08/22 18:01:41;;;;;;;7.73;7.13;;;25.10;99.90;;;;;;5110428;28;20442;-68
2023/08/22 18:04:07;;;;;;;9.13;8.10;;;25.00;99.90;;;;;;5114020;28;20434;-68
2023/08/22 18:06:33;;;;;;;6.70;6.10;;;25.00;99.90;;;;;;5114077;28;20171;-67
2023/08/22 18:09:00;;;;;;;7.83;7.13;;;24.90;99.90;;;;;;5106810;28;20201;-67
2023/08/22 18:11:27;;;;;;;7.10;6.40;;;24.80;99.90;;;;;;5114851;28;20808;-68
2023/08/22 18:13:53;;;;;;;7.80;7.10;;;24.80;99.90;;;;;;5105246;28;20457;-64
2023/08/22 18:16:18;;;;;;;7.00;6.40;;;24.70;99.90;;;;;;5112759;28;20817;-67
2023/08/22 18:18:44;;;;;;;10.13;7.97;;;24.60;99.90;;;;;;5106063;27;20622;-70
2023/08/22 18:21:11;;;;;;;7.90;7.03;;;24.60;99.90;;;;;;5097085;28;20218;-68
2023/08/22 18:23:38;;;;;;;7.30;6.70;;;24.50;99.90;;;;;;5118802;27;20508;-69
2023/08/22 18:26:05;;;;;;;8.30;6.80;;;24.40;99.90;;;;;;5130626;27;20438;-66
2023/08/22 18:28:31;;;;;;;7.10;6.60;;;24.40;99.90;;;;;;5100415;27;20426;-68
2023/08/22 18:30:58;;;;;;;8.00;7.33;;;24.30;99.90;;;;;;5090498;28;20433;-68
2023/08/22 18:33:25;;;;;;;7.37;6.80;;;24.30;99.90;;;;;;5107970;28;20561;-68
2023/08/22 18:35:51;;;;;;;9.07;7.47;;;24.20;99.90;;;;;;5110171;28;21154;-68
2023/08/22 18:38:21;;;;;;;8.40;7.70;;;24.10;99.90;;;;;;5110271;28;20743;-65
2023/08/22 18:40:53;;;;;;;8.53;7.73;;;24.10;99.90;;;;;;5092991;28;20445;-67
2023/08/22 18:43:19;;;;;;;7.13;6.63;;;24.00;99.90;;;;;;5091002;28;20498;-68
2023/08/22 18:45:45;;;;;;;7.90;7.30;;;23.90;99.90;;;;;;5090863;28;20493;-68
2023/08/22 18:48:12;;;;;;;8.90;8.10;;;23.80;99.90;;;;;;5094383;28;20418;-68
2023/08/22 18:50:38;;;;;;;8.10;7.40;;;23.80;99.90;;;;;;5105136;28;20429;-66
2023/08/22 18:53:04;;;;;;;7.73;7.13;;;23.80;99.90;;;;;;5113812;28;20449;-65
2023/08/22 18:55:33;;;;;;;8.17;7.57;;;23.80;99.90;;;;;;5113714;28;20812;-66
2023/08/22 18:57:59;;;;;;;9.30;7.77;;;23.80;99.90;;;;;;5100479;28;20186;-65
2023/08/22 19:00:25;;;;;;;7.87;7.37;;;23.80;99.90;;;;;;5108574;27;20421;-65
2023/08/22 19:02:51;;;;;;;7.33;6.90;;;23.90;99.90;;;;;;5113645;27;20441;-64
2023/08/22 19:05:17;;;;;;;16.33;8.23;;;23.90;99.90;;;;;;5101498;28;20176;-65
2023/08/22 19:07:42;;;;;;;8.03;7.37;;;23.80;99.90;;;;;;5113161;27;20418;-66
2023/08/22 19:10:10;;;;;;;8.50;7.70;;;23.80;99.90;;;;;;5125134;27;20198;-66
2023/08/22 19:12:36;;;;;;;7.63;7.00;;;23.80;99.90;;;;;;5121142;27;20215;-65
2023/08/22 19:15:05;;;;;;;7.87;7.17;;;23.80;99.90;;;;;;5130030;27;20420;-65
2023/08/22 19:17:31;;;;;;;8.53;7.83;;;23.80;99.90;;;;;;5118826;27;20820;-67
2023/08/22 19:19:57;;;;;;;8.40;7.70;;;23.80;99.90;;;;;;5108358;28;20509;-62
2023/08/22 19:22:23;;;;;;;8.43;7.63;;;23.80;99.90;;;;;;5127478;27;20587;-70
2023/08/22 19:24:49;;;;;;;12.13;7.17;;;23.80;99.90;;;;;;5121797;27;20924;-63
2023/08/22 19:27:14;;;;;;;60.43;53.07;;;23.80;99.90;;;;;;5104096;27;20187;-70
2023/08/22 19:29:40;;;;;;;126.37;97.80;;;23.70;99.90;;;;;;5108621;27;20603;-66
2023/08/22 19:32:06;;;;;;;27.50;24.60;;;23.70;99.90;;;;;;5110169;27;20663;-70
2023/08/22 19:34:32;;;;;;;8.83;8.20;;;23.60;99.90;;;;;;5117289;27;20631;-72
2023/08/22 19:36:57;;;;;;;7.83;7.20;;;23.50;99.90;;;;;;5104335;27;20172;-63
2023/08/22 19:39:23;;;;;;;8.60;7.80;;;23.40;99.90;;;;;;5109821;28;20182;-63
2023/08/22 19:41:49;;;;;;;8.57;7.70;;;23.30;99.90;;;;;;5107701;28;20258;-63
2023/08/22 19:44:15;;;;;;;8.00;7.50;;;23.20;99.90;;;;;;5099411;28;20623;-64
2023/08/22 19:46:41;;;;;;;10.53;7.60;;;23.20;99.90;;;;;;5111873;28;20190;-64
2023/08/22 19:49:07;;;;;;;8.13;7.50;;;23.10;99.90;;;;;;5107973;28;20176;-64
2023/08/22 19:51:33;;;;;;;7.50;7.00;;;23.10;99.90;;;;;;5120805;27;20476;-64
2023/08/22 19:54:00;;;;;;;8.80;8.00;;;23.00;99.90;;;;;;5117006;27;20806;-63
2023/08/22 19:56:27;;;;;;;8.63;7.93;;;23.00;99.90;;;;;;5108926;27;20191;-64
2023/08/22 19:58:52;;;;;;;8.77;8.00;;;22.90;99.90;;;;;;5114073;27;20771;-64
2023/08/22 20:01:22;;;;;;;8.53;7.80;;;22.90;99.90;;;;;;5105190;28;20421;-64
2023/08/22 20:03:48;;;;;;;8.17;7.53;;;22.80;99.90;;;;;;5100146;28;20667;-64
2023/08/22 20:06:14;;;;;;;9.10;8.50;;;22.80;99.90;;;;;;5100253;28;20505;-64
2023/08/22 20:08:41;;;;;;;11.13;10.23;;;22.70;99.90;;;;;;5113059;28;20500;-64
2023/08/22 20:11:07;;;;;;;10.77;9.80;;;22.60;99.90;;;;;;5124330;27;20179;-63
2023/08/22 20:13:33;;;;;;;10.87;10.07;;;22.70;99.90;;;;;;5112979;28;20951;-64
2023/08/22 20:15:59;;;;;;;10.83;10.03;;;22.60;99.90;;;;;;5113388;28;20175;-63
2023/08/22 20:18:24;;;;;;;10.40;9.70;;;22.60;99.90;;;;;;5112859;28;20172;-64
2023/08/22 20:20:50;;;;;;;9.30;8.70;;;22.50;99.90;;;;;;5113065;28;20792;-63
2023/08/22 20:23:16;;;;;;;10.10;9.30;;;22.50;99.90;;;;;;5121312;27;20229;-64
2023/08/22 20:25:42;;;;;;;9.90;9.03;;;22.50;99.90;;;;;;5112989;28;20270;-63
2023/08/22 20:28:08;;;;;;;9.40;8.60;;;22.40;99.90;;;;;;5112326;28;20448;-64
2023/08/22 20:30:34;;;;;;;8.90;8.03;;;22.40;99.90;;;;;;5112740;28;20183;-71
2023/08/22 20:33:01;;;;;;;9.00;8.30;;;22.30;99.90;;;;;;5112576;28;20227;-60
2023/08/22 20:35:27;;;;;;;394.43;299.23;;;22.30;99.90;;;;;;5113178;28;20432;-64
2023/08/22 20:37:55;;;;;;;436.00;305.83;;;22.30;99.90;;;;;;5112472;28;20402;-63
2023/08/22 20:40:23;;;;;;;36.53;32.73;;;22.20;99.90;;;;;;5113768;27;20782;-63
2023/08/22 20:42:48;;;;;;;11.77;10.73;;;22.20;99.90;;;;;;5114463;28;20494;-64
2023/08/22 20:45:14;;;;;;;10.33;7.97;;;22.20;99.90;;;;;;5112508;28;20459;-64
2023/08/22 20:47:41;;;;;;;10.20;9.50;;;22.20;99.90;;;;;;5112935;28;20167;-63
2023/08/22 20:50:08;;;;;;;11.90;9.10;;;22.20;99.90;;;;;;5112355;28;20179;-63
2023/08/22 20:52:34;;;;;;;9.50;8.70;;;22.20;99.90;;;;;;5109831;28;20510;-63
2023/08/22 20:55:00;;;;;;;9.37;8.67;;;22.20;99.90;;;;;;5123703;27;20428;-64
2023/08/22 20:57:26;;;;;;;10.50;9.63;;;22.10;99.90;;;;;;5136613;27;20514;-64
2023/08/22 20:59:52;;;;;;;10.00;8.90;;;22.10;99.90;;;;;;5123227;27;20579;-63
2023/08/22 21:02:18;;;;;;;10.87;10.00;;;22.10;99.90;;;;;;5136872;27;20171;-63
2023/08/22 21:04:44;;;;;;;9.40;8.63;;;22.00;99.90;;;;;;5137720;27;20407;-63
2023/08/22 21:07:10;;;;;;;11.33;10.37;;;22.00;99.90;;;;;;5135789;27;20581;-65
2023/08/22 21:09:36;;;;;;;11.50;10.47;;;22.00;99.90;;;;;;5104180;27;20466;-64
2023/08/22 21:12:05;;;;;;;13.33;12.10;;;21.90;99.90;;;;;;5107441;28;20499;-63
2023/08/22 21:14:31;;;;;;;11.27;10.30;;;21.90;99.90;;;;;;5111797;28;20180;-63
2023/08/22 21:16:58;;;;;;;11.00;9.90;;;21.90;99.90;;;;;;5108699;28;20447;-63
2023/08/22 21:19:24;;;;;;;10.40;9.50;;;21.80;99.90;;;;;;5116063;28;20420;-63
2023/08/22 21:21:50;;;;;;;9.87;9.07;;;21.80;99.90;;;;;;5116115;28;20413;-63
2023/08/22 21:24:16;;;;;;;10.40;9.17;;;21.80;99.90;;;;;;5113550;27;20935;-63
2023/08/22 21:26:41;;;;;;;10.00;9.30;;;21.80;99.90;;;;;;5109076;28;20225;-63
2023/08/22 21:29:11;;;;;;;10.07;9.27;;;21.80;99.90;;;;;;5103886;28;20184;-63
2023/08/22 21:31:37;;;;;;;9.70;8.90;;;21.70;99.90;;;;;;5096277;28;20230;-63
2023/08/22 21:34:03;;;;;;;14.23;11.70;;;21.70;99.90;;;;;;5095851;28;20477;-63
2023/08/22 21:36:29;;;;;;;13.37;11.80;;;21.70;99.90;;;;;;5102900;28;20172;-63
2023/08/22 21:38:55;;;;;;;11.57;10.53;;;21.70;99.90;;;;;;5114262;28;20909;-63
2023/08/22 21:41:21;;;;;;;11.80;10.70;;;21.60;99.90;;;;;;5113733;28;20429;-63
2023/08/22 21:43:47;;;;;;;11.90;10.73;;;21.60;99.90;;;;;;5099411;28;20418;-64
2023/08/22 21:46:13;;;;;;;11.63;10.50;;;21.60;99.90;;;;;;5106933;28;20176;-63
2023/08/22 21:48:39;;;;;;;10.67;9.70;;;21.60;99.90;;;;;;5098403;28;20640;-64
2023/08/22 21:51:04;;;;;;;11.40;10.60;;;21.50;99.90;;;;;;5095323;28;20509;-60
2023/08/22 21:53:30;;;;;;;11.27;9.53;;;21.50;99.90;;;;;;5098854;27;20675;-63
2023/08/22 21:55:56;;;;;;;11.70;10.70;;;21.50;99.90;;;;;;5109120;27;20175;-64
2023/08/22 21:58:22;;;;;;;11.60;10.40;;;21.50;99.90;;;;;;5113472;28;20195;-69
2023/08/22 22:01:17;;;;;;;11.57;10.70;;;21.40;99.90;;;;;;5102829;28;20180;-68
2023/08/22 22:03:43;;;;;;;10.77;9.87;;;21.40;99.90;;;;;;5095035;28;20548;-69
2023/08/22 22:06:09;;;;;;;11.20;10.20;;;21.30;99.90;;;;;;5094234;28;20402;-70
2023/08/22 22:08:36;;;;;;;11.70;10.60;;;21.30;99.90;;;;;;5094926;28;20810;-70
2023/08/22 22:11:02;;;;;;;11.07;10.27;;;21.30;99.90;;;;;;5095257;28;20800;-69
2023/08/22 22:13:28;;;;;;;11.23;10.33;;;21.20;99.90;;;;;;5108963;28;20453;-70
2023/08/22 22:15:54;;;;;;;12.13;10.90;;;21.20;99.90;;;;;;5099702;28;20180;-70
2023/08/22 22:18:20;;;;;;;11.33;10.33;;;21.20;99.90;;;;;;5097495;28;20164;-70
2023/08/22 22:20:58;;;;;;;10.50;9.70;;;21.20;99.90;;;;;;5095742;28;20479;-71
2023/08/22 22:23:24;;;;;;;11.10;10.30;;;21.10;99.90;;;;;;5097310;27;20421;-70
2023/08/22 22:26:10;;;;;;;11.13;10.30;;;21.10;99.90;;;;;;5130338;27;20481;-68
2023/08/22 22:28:37;;;;;;;11.63;10.23;;;21.10;99.90;;;;;;5115378;27;20503;-70
2023/08/22 22:31:12;;;;;;;9.70;9.07;;;21.10;99.90;;;;;;5135635;27;20415;-70
2023/08/22 22:33:38;;;;;;;10.43;9.63;;;21.00;99.90;;;;;;5135493;27;20943;-70
2023/08/22 22:36:04;;;;;;;10.13;9.33;;;21.00;99.90;;;;;;5134848;27;20977;-71
2023/08/22 22:38:30;;;;;;;12.07;9.87;;;21.00;99.90;;;;;;5112748;27;20462;-71
2023/08/22 22:41:05;;;;;;;10.53;9.63;;;21.00;99.90;;;;;;5114826;28;20804;-70
2023/08/22 22:43:31;;;;;;;10.97;10.07;;;21.00;99.90;;;;;;5111840;28;21012;-71
2023/08/22 22:45:57;;;;;;;11.67;10.70;;;20.90;99.90;;;;;;5114975;28;20398;-71
2023/08/22 22:48:24;;;;;;;11.03;10.03;;;20.90;99.90;;;;;;5114278;28;20463;-70
2023/08/22 22:50:50;;;;;;;10.47;9.67;;;20.90;99.90;;;;;;5113994;28;20784;-69
2023/08/22 22:53:16;;;;;;;10.80;9.97;;;20.90;99.90;;;;;;5131428;27;20464;-70
2023/08/22 22:55:42;;;;;;;10.97;10.07;;;20.90;99.90;;;;;;5135581;27;20178;-70
2023/08/22 22:58:11;;;;;;;10.90;10.10;;;20.80;99.90;;;;;;5118176;27;20516;-71
2023/08/22 23:00:37;;;;;;;10.67;9.87;;;20.80;99.90;;;;;;5114695;28;20408;-71
2023/08/22 23:03:03;;;;;;;10.70;10.03;;;20.80;99.90;;;;;;5107190;28;20466;-70
2023/08/22 23:05:29;;;;;;;10.73;10.03;;;20.80;99.90;;;;;;5093648;28;20638;-71
2023/08/22 23:07:55;;;;;;;11.73;10.80;;;20.70;99.90;;;;;;5093898;28;20410;-71
2023/08/22 23:10:21;;;;;;;11.80;10.70;;;20.70;99.90;;;;;;5093769;28;20233;-70
2023/08/22 23:12:46;;;;;;;11.30;10.40;;;20.70;99.90;;;;;;5097943;28;20204;-70
2023/08/22 23:15:12;;;;;;;11.77;10.97;;;20.70;99.90;;;;;;5093380;28;20417;-71
2023/08/22 23:17:40;;;;;;;11.57;10.67;;;20.70;99.90;;;;;;5093071;28;20226;-70
2023/08/22 23:20:07;;;;;;;10.87;10.17;;;20.70;99.90;;;;;;5093628;28;20908;-71
2023/08/22 23:22:36;;;;;;;11.33;10.43;;;20.70;99.90;;;;;;5111013;27;20899;-71
2023/08/22 23:25:01;;;;;;;11.67;10.80;;;20.60;99.90;;;;;;5106470;27;20440;-71
2023/08/22 23:27:28;;;;;;;11.10;10.40;;;20.60;99.90;;;;;;5092918;28;20391;-71
2023/08/22 23:29:54;;;;;;;10.87;10.10;;;20.60;99.90;;;;;;5093700;28;20224;-70
2023/08/22 23:32:25;;;;;;;11.23;10.40;;;20.60;99.90;;;;;;5092697;28;20462;-71
2023/08/22 23:34:51;;;;;;;10.83;10.03;;;20.60;99.90;;;;;;5093776;28;20419;-71
2023/08/22 23:37:17;;;;;;;11.00;10.30;;;20.60;99.90;;;;;;5093169;28;20771;-71
2023/08/22 23:39:43;;;;;;;10.73;9.97;;;20.50;99.90;;;;;;5103771;28;20424;-71
2023/08/22 23:42:09;;;;;;;10.03;9.33;;;20.50;99.90;;;;;;5113844;28;20176;-71
2023/08/22 23:44:34;;;;;;;9.43;8.80;;;20.50;99.90;;;;;;5113221;28;20262;-71
2023/08/22 23:47:00;;;;;;;9.70;9.00;;;20.50;99.90;;;;;;5113725;28;20202;-71
2023/08/22 23:49:26;;;;;;;12.50;8.80;;;20.50;99.90;;;;;;5111339;28;20188;-71
2023/08/22 23:51:52;;;;;;;9.73;8.83;;;20.50;99.90;;;;;;5120362;27;20421;-71
2023/08/22 23:54:17;;;;;;;9.93;9.23;;;20.40;99.90;;;;;;5096043;27;20740;-71
2023/08/22 23:56:43;;;;;;;8.90;8.20;;;20.40;99.90;;;;;;5093355;28;20180;-71
2023/08/22 23:59:09;;;;;;;10.40;9.60;;;20.40;99.90;;;;;;5100848;28;20172;-71
